sensor_id;sensor_type;location;lat;lon;timestamp;P1;durP1;ratioP1;P2;durP2;ratioP2
73168;SDS011;61379;59.732;30.468;2023-06-24T00:01:27;20.00;;;14.00;;
73168;SDS011;61379;59.732;30.468;2023-06-24T00:03:54;21.38;;;13.88;;
73168;SDS011;61379;59.732;30.468;2023-06-24T00:06:22;22.60;;;14.38;;
73168;SDS011;61379;59.732;30.468;2023-06-24T00:08:51;19.42;;;13.05;;
73168;SDS011;61379;59.732;30.468;2023-06-24T00:11:25;20.35;;;13.48;;
73168;SDS011;61379;59.732;30.468;2023-06-24T00:13:52;19.35;;;13.32;;
73168;SDS011;61379;59.732;30.468;2023-06-24T00:16:19;20.88;;;12.15;;
73168;SDS011;61379;59.732;30.468;2023-06-24T00:18:52;21.02;;;13.07;;
73168;SDS011;61379;59.732;30.468;2023-06-24T00:21:19;23.25;;;14.02;;
73168;SDS011;61379;59.732;30.468;2023-06-24T00:23:47;24.13;;;13.73;;
73168;SDS011;61379;59.732;30.468;2023-06-24T00:26:14;23.42;;;13.70;;
73168;SDS011;61379;59.732;30.468;2023-06-24T00:28:41;23.73;;;13.40;;
73168;SDS011;61379;59.732;30.468;2023-06-24T00:31:08;21.50;;;12.88;;
73168;SDS011;61379;59.732;30.468;2023-06-24T00:33:37;20.75;;;13.52;;
73168;SDS011;61379;59.732;30.468;2023-06-24T00:36:04;21.83;;;14.80;;
73168;SDS011;61379;59.732;30.468;2023-06-24T00:38:31;23.92;;;13.00;;
73168;SDS011;61379;59.732;30.468;2023-06-24T00:41:00;19.55;;;13.93;;
73168;SDS011;61379;59.732;30.468;2023-06-24T00:43:27;19.55;;;10.98;;
73168;SDS011;61379;59.732;30.468;2023-06-24T00:45:55;17.58;;;11.68;;
73168;SDS011;61379;59.732;30.468;2023-06-24T00:48:21;18.88;;;12.13;;
73168;SDS011;61379;59.732;30.468;2023-06-24T00:50:49;16.77;;;11.07;;
73168;SDS011;61379;59.732;30.468;2023-06-24T00:53:15;17.35;;;11.50;;
73168;SDS011;61379;59.732;30.468;2023-06-24T00:55:43;19.83;;;11.82;;
73168;SDS011;61379;59.732;30.468;2023-06-24T00:58:12;15.55;;;10.80;;
73168;SDS011;61379;59.732;30.468;2023-06-24T01:00:42;15.38;;;10.70;;
73168;SDS011;61379;59.732;30.468;2023-06-24T01:05:39;14.85;;;11.38;;
73168;SDS011;61379;59.732;30.468;2023-06-24T01:08:06;20.75;;;12.32;;
73168;SDS011;61379;59.732;30.468;2023-06-24T01:10:33;17.55;;;12.30;;
73168;SDS011;61379;59.732;30.468;2023-06-24T01:12:59;14.40;;;10.85;;
73168;SDS011;61379;59.732;30.468;2023-06-24T01:15:28;16.20;;;12.35;;
73168;SDS011;61379;59.732;30.468;2023-06-24T01:17:56;14.55;;;10.45;;
73168;SDS011;61379;59.732;30.468;2023-06-24T01:20:27;15.60;;;11.60;;
73168;SDS011;61379;59.732;30.468;2023-06-24T01:23:07;15.05;;;10.45;;
73168;SDS011;61379;59.732;30.468;2023-06-24T01:25:44;15.32;;;11.07;;
73168;SDS011;61379;59.732;30.468;2023-06-24T01:28:20;12.93;;;10.32;;
73168;SDS011;61379;59.732;30.468;2023-06-24T01:33:41;13.38;;;9.32;;
73168;SDS011;61379;59.732;30.468;2023-06-24T01:36:10;13.25;;;10.02;;
73168;SDS011;61379;59.732;30.468;2023-06-24T01:38:41;13.43;;;10.00;;
73168;SDS011;61379;59.732;30.468;2023-06-24T01:41:09;11.90;;;9.38;;
73168;SDS011;61379;59.732;30.468;2023-06-24T01:43:38;15.93;;;10.48;;
73168;SDS011;61379;59.732;30.468;2023-06-24T01:46:07;11.35;;;9.15;;
73168;SDS011;61379;59.732;30.468;2023-06-24T01:48:35;14.23;;;9.55;;
73168;SDS011;61379;59.732;30.468;2023-06-24T01:51:06;10.95;;;9.60;;
73168;SDS011;61379;59.732;30.468;2023-06-24T01:53:34;13.63;;;8.98;;
73168;SDS011;61379;59.732;30.468;2023-06-24T01:56:01;10.70;;;9.07;;
73168;SDS011;61379;59.732;30.468;2023-06-24T01:58:28;12.50;;;9.50;;
73168;SDS011;61379;59.732;30.468;2023-06-24T02:00:56;13.73;;;10.23;;
73168;SDS011;61379;59.732;30.468;2023-06-24T02:03:24;11.02;;;8.98;;
73168;SDS011;61379;59.732;30.468;2023-06-24T02:05:50;11.25;;;9.43;;
73168;SDS011;61379;59.732;30.468;2023-06-24T02:08:20;11.30;;;9.02;;
73168;SDS011;61379;59.732;30.468;2023-06-24T02:10:47;11.93;;;8.68;;
73168;SDS011;61379;59.732;30.468;2023-06-24T02:13:14;10.65;;;8.73;;
73168;SDS011;61379;59.732;30.468;2023-06-24T02:15:42;12.05;;;8.30;;
73168;SDS011;61379;59.732;30.468;2023-06-24T02:18:10;11.07;;;9.30;;
73168;SDS011;61379;59.732;30.468;2023-06-24T02:20:38;12.68;;;8.35;;
73168;SDS011;61379;59.732;30.468;2023-06-24T02:23:06;12.10;;;8.27;;
73168;SDS011;61379;59.732;30.468;2023-06-24T02:25:36;12.07;;;8.40;;
73168;SDS011;61379;59.732;30.468;2023-06-24T02:28:04;13.48;;;9.35;;
73168;SDS011;61379;59.732;30.468;2023-06-24T02:30:31;11.35;;;8.93;;
73168;SDS011;61379;59.732;30.468;2023-06-24T02:32:58;11.07;;;8.25;;
73168;SDS011;61379;59.732;30.468;2023-06-24T02:35:25;10.60;;;8.73;;
73168;SDS011;61379;59.732;30.468;2023-06-24T02:37:52;10.73;;;8.50;;
73168;SDS011;61379;59.732;30.468;2023-06-24T02:40:19;10.13;;;8.82;;
73168;SDS011;61379;59.732;30.468;2023-06-24T02:42:47;9.38;;;8.38;;
73168;SDS011;61379;59.732;30.468;2023-06-24T02:45:14;10.73;;;8.65;;
73168;SDS011;61379;59.732;30.468;2023-06-24T02:47:41;8.75;;;7.75;;
73168;SDS011;61379;59.732;30.468;2023-06-24T02:50:10;12.13;;;9.45;;
73168;SDS011;61379;59.732;30.468;2023-06-24T02:52:37;9.65;;;8.10;;
73168;SDS011;61379;59.732;30.468;2023-06-24T02:55:04;11.90;;;9.32;;
73168;SDS011;61379;59.732;30.468;2023-06-24T02:57:32;10.85;;;8.80;;
73168;SDS011;61379;59.732;30.468;2023-06-24T03:00:01;10.77;;;8.70;;
73168;SDS011;61379;59.732;30.468;2023-06-24T03:02:31;9.68;;;8.68;;
73168;SDS011;61379;59.732;30.468;2023-06-24T03:04:58;12.02;;;8.70;;
73168;SDS011;61379;59.732;30.468;2023-06-24T03:07:27;11.48;;;10.27;;
73168;SDS011;61379;59.732;30.468;2023-06-24T03:09:55;12.98;;;9.93;;
73168;SDS011;61379;59.732;30.468;2023-06-24T03:12:23;13.63;;;10.63;;
73168;SDS011;61379;59.732;30.468;2023-06-24T03:14:50;10.90;;;9.68;;
73168;SDS011;61379;59.732;30.468;2023-06-24T03:17:18;13.13;;;10.50;;
73168;SDS011;61379;59.732;30.468;2023-06-24T03:19:44;14.68;;;10.23;;
73168;SDS011;61379;59.732;30.468;2023-06-24T03:22:11;15.48;;;11.80;;
73168;SDS011;61379;59.732;30.468;2023-06-24T03:24:38;17.42;;;11.43;;
73168;SDS011;61379;59.732;30.468;2023-06-24T03:27:05;11.63;;;9.90;;
73168;SDS011;61379;59.732;30.468;2023-06-24T03:29:31;13.73;;;10.70;;
73168;SDS011;61379;59.732;30.468;2023-06-24T03:31:58;14.77;;;10.70;;
73168;SDS011;61379;59.732;30.468;2023-06-24T03:34:26;12.02;;;10.20;;
73168;SDS011;61379;59.732;30.468;2023-06-24T03:36:53;12.40;;;9.48;;
73168;SDS011;61379;59.732;30.468;2023-06-24T03:39:20;17.05;;;11.63;;
73168;SDS011;61379;59.732;30.468;2023-06-24T03:41:47;13.02;;;11.27;;
73168;SDS011;61379;59.732;30.468;2023-06-24T03:44:14;12.23;;;10.95;;
73168;SDS011;61379;59.732;30.468;2023-06-24T03:46:41;12.60;;;10.20;;
73168;SDS011;61379;59.732;30.468;2023-06-24T03:49:07;14.43;;;11.20;;
73168;SDS011;61379;59.732;30.468;2023-06-24T03:51:35;13.02;;;10.63;;
73168;SDS011;61379;59.732;30.468;2023-06-24T03:54:02;12.15;;;10.95;;
73168;SDS011;61379;59.732;30.468;2023-06-24T03:56:29;11.57;;;10.38;;
73168;SDS011;61379;59.732;30.468;2023-06-24T03:58:55;11.45;;;9.90;;
73168;SDS011;61379;59.732;30.468;2023-06-24T04:01:22;11.48;;;10.20;;
73168;SDS011;61379;59.732;30.468;2023-06-24T04:03:49;12.75;;;10.48;;
73168;SDS011;61379;59.732;30.468;2023-06-24T04:06:16;11.98;;;10.48;;
73168;SDS011;61379;59.732;30.468;2023-06-24T04:08:44;12.30;;;9.52;;
73168;SDS011;61379;59.732;30.468;2023-06-24T04:11:14;12.38;;;10.23;;
73168;SDS011;61379;59.732;30.468;2023-06-24T04:13:40;14.55;;;8.98;;
73168;SDS011;61379;59.732;30.468;2023-06-24T04:16:07;11.02;;;9.30;;
73168;SDS011;61379;59.732;30.468;2023-06-24T04:18:34;12.60;;;10.52;;
73168;SDS011;61379;59.732;30.468;2023-06-24T04:21:04;11.02;;;9.90;;
73168;SDS011;61379;59.732;30.468;2023-06-24T04:23:31;11.25;;;10.13;;
73168;SDS011;61379;59.732;30.468;2023-06-24T04:26:00;11.75;;;10.60;;
73168;SDS011;61379;59.732;30.468;2023-06-24T04:28:26;12.48;;;10.77;;
73168;SDS011;61379;59.732;30.468;2023-06-24T04:30:53;11.57;;;10.27;;
73168;SDS011;61379;59.732;30.468;2023-06-24T04:33:20;15.32;;;10.82;;
73168;SDS011;61379;59.732;30.468;2023-06-24T04:35:48;15.40;;;10.52;;
73168;SDS011;61379;59.732;30.468;2023-06-24T04:38:16;12.90;;;9.93;;
73168;SDS011;61379;59.732;30.468;2023-06-24T04:40:43;15.25;;;11.50;;
73168;SDS011;61379;59.732;30.468;2023-06-24T04:43:12;12.38;;;10.27;;
73168;SDS011;61379;59.732;30.468;2023-06-24T04:45:38;14.07;;;9.57;;
73168;SDS011;61379;59.732;30.468;2023-06-24T04:48:05;14.43;;;11.82;;
73168;SDS011;61379;59.732;30.468;2023-06-24T04:50:32;15.20;;;11.25;;
73168;SDS011;61379;59.732;30.468;2023-06-24T04:52:59;16.75;;;12.52;;
73168;SDS011;61379;59.732;30.468;2023-06-24T04:55:27;13.98;;;11.27;;
73168;SDS011;61379;59.732;30.468;2023-06-24T04:57:55;16.05;;;12.75;;
73168;SDS011;61379;59.732;30.468;2023-06-24T05:00:23;14.90;;;11.98;;
73168;SDS011;61379;59.732;30.468;2023-06-24T05:02:50;16.95;;;10.98;;
73168;SDS011;61379;59.732;30.468;2023-06-24T05:05:17;13.90;;;11.70;;
73168;SDS011;61379;59.732;30.468;2023-06-24T05:07:45;13.75;;;10.88;;
73168;SDS011;61379;59.732;30.468;2023-06-24T05:10:12;12.38;;;10.02;;
73168;SDS011;61379;59.732;30.468;2023-06-24T05:12:39;14.68;;;9.63;;
73168;SDS011;61379;59.732;30.468;2023-06-24T05:15:06;16.08;;;10.73;;
73168;SDS011;61379;59.732;30.468;2023-06-24T05:17:34;12.52;;;10.48;;
73168;SDS011;61379;59.732;30.468;2023-06-24T05:20:01;13.77;;;10.80;;
73168;SDS011;61379;59.732;30.468;2023-06-24T05:22:30;16.73;;;10.77;;
73168;SDS011;61379;59.732;30.468;2023-06-24T05:24:56;19.52;;;12.43;;
73168;SDS011;61379;59.732;30.468;2023-06-24T05:27:23;16.45;;;10.48;;
73168;SDS011;61379;59.732;30.468;2023-06-24T05:29:50;17.52;;;10.88;;
73168;SDS011;61379;59.732;30.468;2023-06-24T05:32:17;13.65;;;9.95;;
73168;SDS011;61379;59.732;30.468;2023-06-24T05:34:46;15.88;;;10.35;;
73168;SDS011;61379;59.732;30.468;2023-06-24T05:37:13;16.55;;;11.32;;
73168;SDS011;61379;59.732;30.468;2023-06-24T05:39:40;18.65;;;12.10;;
73168;SDS011;61379;59.732;30.468;2023-06-24T05:42:07;15.98;;;9.93;;
73168;SDS011;61379;59.732;30.468;2023-06-24T05:44:33;17.73;;;10.85;;
73168;SDS011;61379;59.732;30.468;2023-06-24T05:47:00;20.63;;;10.85;;
73168;SDS011;61379;59.732;30.468;2023-06-24T05:49:27;13.73;;;10.93;;
73168;SDS011;61379;59.732;30.468;2023-06-24T05:51:55;15.82;;;11.90;;
73168;SDS011;61379;59.732;30.468;2023-06-24T05:54:22;17.58;;;11.77;;
73168;SDS011;61379;59.732;30.468;2023-06-24T05:56:49;17.35;;;12.43;;
73168;SDS011;61379;59.732;30.468;2023-06-24T05:59:15;18.38;;;11.85;;
73168;SDS011;61379;59.732;30.468;2023-06-24T06:01:42;19.10;;;11.70;;
73168;SDS011;61379;59.732;30.468;2023-06-24T06:04:09;19.35;;;11.82;;
73168;SDS011;61379;59.732;30.468;2023-06-24T06:06:36;14.68;;;10.57;;
73168;SDS011;61379;59.732;30.468;2023-06-24T06:09:04;12.75;;;9.15;;
73168;SDS011;61379;59.732;30.468;2023-06-24T06:11:31;10.38;;;9.07;;
73168;SDS011;61379;59.732;30.468;2023-06-24T06:13:58;12.57;;;9.77;;
73168;SDS011;61379;59.732;30.468;2023-06-24T06:16:25;10.55;;;9.52;;
73168;SDS011;61379;59.732;30.468;2023-06-24T06:18:51;14.68;;;10.35;;
73168;SDS011;61379;59.732;30.468;2023-06-24T06:21:18;12.55;;;11.07;;
73168;SDS011;61379;59.732;30.468;2023-06-24T06:23:45;18.80;;;9.50;;
73168;SDS011;61379;59.732;30.468;2023-06-24T06:26:13;13.15;;;9.00;;
73168;SDS011;61379;59.732;30.468;2023-06-24T06:28:40;12.27;;;9.07;;
73168;SDS011;61379;59.732;30.468;2023-06-24T06:31:06;12.90;;;8.75;;
73168;SDS011;61379;59.732;30.468;2023-06-24T06:33:33;10.82;;;9.50;;
73168;SDS011;61379;59.732;30.468;2023-06-24T06:36:00;10.70;;;9.63;;
73168;SDS011;61379;59.732;30.468;2023-06-24T06:38:27;11.95;;;8.98;;
73168;SDS011;61379;59.732;30.468;2023-06-24T06:40:54;10.82;;;9.07;;
73168;SDS011;61379;59.732;30.468;2023-06-24T06:43:22;12.57;;;10.15;;
73168;SDS011;61379;59.732;30.468;2023-06-24T06:45:48;11.38;;;10.18;;
73168;SDS011;61379;59.732;30.468;2023-06-24T06:48:15;13.43;;;8.95;;
73168;SDS011;61379;59.732;30.468;2023-06-24T06:50:42;10.77;;;8.85;;
73168;SDS011;61379;59.732;30.468;2023-06-24T06:53:09;10.23;;;9.30;;
73168;SDS011;61379;59.732;30.468;2023-06-24T06:55:36;9.57;;;8.48;;
73168;SDS011;61379;59.732;30.468;2023-06-24T06:58:02;13.52;;;9.43;;
73168;SDS011;61379;59.732;30.468;2023-06-24T07:00:30;9.52;;;8.60;;
73168;SDS011;61379;59.732;30.468;2023-06-24T07:02:57;9.82;;;8.82;;
73168;SDS011;61379;59.732;30.468;2023-06-24T07:05:24;10.48;;;9.30;;
73168;SDS011;61379;59.732;30.468;2023-06-24T07:07:51;9.25;;;8.43;;
73168;SDS011;61379;59.732;30.468;2023-06-24T07:10:19;10.88;;;9.10;;
73168;SDS011;61379;59.732;30.468;2023-06-24T07:12:45;10.30;;;9.40;;
73168;SDS011;61379;59.732;30.468;2023-06-24T07:15:12;10.55;;;9.65;;
73168;SDS011;61379;59.732;30.468;2023-06-24T07:17:41;10.48;;;9.45;;
73168;SDS011;61379;59.732;30.468;2023-06-24T07:20:08;10.55;;;9.75;;
73168;SDS011;61379;59.732;30.468;2023-06-24T07:22:35;10.55;;;9.65;;
73168;SDS011;61379;59.732;30.468;2023-06-24T07:25:01;9.50;;;8.70;;
73168;SDS011;61379;59.732;30.468;2023-06-24T07:27:29;9.73;;;8.77;;
73168;SDS011;61379;59.732;30.468;2023-06-24T07:29:56;10.38;;;9.65;;
73168;SDS011;61379;59.732;30.468;2023-06-24T07:32:23;10.15;;;9.38;;
73168;SDS011;61379;59.732;30.468;2023-06-24T07:34:51;10.52;;;9.60;;
73168;SDS011;61379;59.732;30.468;2023-06-24T07:37:17;11.32;;;9.80;;
73168;SDS011;61379;59.732;30.468;2023-06-24T07:39:44;10.48;;;9.65;;
73168;SDS011;61379;59.732;30.468;2023-06-24T07:42:11;10.98;;;10.07;;
73168;SDS011;61379;59.732;30.468;2023-06-24T07:44:44;10.52;;;9.77;;
73168;SDS011;61379;59.732;30.468;2023-06-24T07:47:10;12.07;;;9.38;;
73168;SDS011;61379;59.732;30.468;2023-06-24T07:49:37;11.18;;;10.18;;
73168;SDS011;61379;59.732;30.468;2023-06-24T07:52:06;11.00;;;9.93;;
73168;SDS011;61379;59.732;30.468;2023-06-24T07:54:33;11.63;;;10.60;;
73168;SDS011;61379;59.732;30.468;2023-06-24T07:57:00;11.45;;;9.95;;
73168;SDS011;61379;59.732;30.468;2023-06-24T07:59:26;10.15;;;9.23;;
73168;SDS011;61379;59.732;30.468;2023-06-24T08:01:53;11.05;;;10.25;;
73168;SDS011;61379;59.732;30.468;2023-06-24T08:04:20;10.20;;;9.50;;
73168;SDS011;61379;59.732;30.468;2023-06-24T08:06:47;11.75;;;10.65;;
73168;SDS011;61379;59.732;30.468;2023-06-24T08:09:15;10.05;;;9.10;;
73168;SDS011;61379;59.732;30.468;2023-06-24T08:11:42;9.73;;;9.02;;
73168;SDS011;61379;59.732;30.468;2023-06-24T08:14:09;10.65;;;9.70;;
73168;SDS011;61379;59.732;30.468;2023-06-24T08:16:36;10.38;;;9.35;;
73168;SDS011;61379;59.732;30.468;2023-06-24T08:19:02;9.70;;;8.80;;
73168;SDS011;61379;59.732;30.468;2023-06-24T08:21:29;10.40;;;9.70;;
73168;SDS011;61379;59.732;30.468;2023-06-24T08:23:56;10.48;;;9.50;;
73168;SDS011;61379;59.732;30.468;2023-06-24T08:26:24;10.15;;;9.25;;
73168;SDS011;61379;59.732;30.468;2023-06-24T08:28:51;9.88;;;9.07;;
73168;SDS011;61379;59.732;30.468;2023-06-24T08:31:17;9.98;;;9.18;;
73168;SDS011;61379;59.732;30.468;2023-06-24T08:33:48;9.75;;;9.05;;
73168;SDS011;61379;59.732;30.468;2023-06-24T08:36:18;10.27;;;9.48;;
73168;SDS011;61379;59.732;30.468;2023-06-24T08:38:44;10.05;;;9.13;;
73168;SDS011;61379;59.732;30.468;2023-06-24T08:41:11;10.70;;;9.90;;
73168;SDS011;61379;59.732;30.468;2023-06-24T08:43:39;9.10;;;8.40;;
73168;SDS011;61379;59.732;30.468;2023-06-24T08:46:08;10.85;;;8.90;;
73168;SDS011;61379;59.732;30.468;2023-06-24T08:48:35;10.27;;;9.57;;
73168;SDS011;61379;59.732;30.468;2023-06-24T08:51:06;10.75;;;9.85;;
73168;SDS011;61379;59.732;30.468;2023-06-24T08:53:34;9.20;;;8.30;;
73168;SDS011;61379;59.732;30.468;2023-06-24T08:56:00;9.93;;;9.13;;
73168;SDS011;61379;59.732;30.468;2023-06-24T08:58:27;8.75;;;7.97;;
73168;SDS011;61379;59.732;30.468;2023-06-24T09:00:56;9.50;;;8.48;;
73168;SDS011;61379;59.732;30.468;2023-06-24T09:03:23;8.63;;;7.93;;
73168;SDS011;61379;59.732;30.468;2023-06-24T09:05:49;8.90;;;8.18;;
73168;SDS011;61379;59.732;30.468;2023-06-24T09:08:16;8.40;;;7.65;;
73168;SDS011;61379;59.732;30.468;2023-06-24T09:10:43;8.95;;;8.27;;
73168;SDS011;61379;59.732;30.468;2023-06-24T09:13:10;9.10;;;8.35;;
73168;SDS011;61379;59.732;30.468;2023-06-24T09:15:37;8.82;;;8.13;;
73168;SDS011;61379;59.732;30.468;2023-06-24T09:18:06;8.48;;;7.85;;
73168;SDS011;61379;59.732;30.468;2023-06-24T09:20:32;8.80;;;7.80;;
73168;SDS011;61379;59.732;30.468;2023-06-24T09:23:05;8.90;;;8.05;;
73168;SDS011;61379;59.732;30.468;2023-06-24T09:25:31;8.20;;;7.50;;
73168;SDS011;61379;59.732;30.468;2023-06-24T09:27:58;8.65;;;7.30;;
73168;SDS011;61379;59.732;30.468;2023-06-24T09:30:25;10.13;;;9.07;;
73168;SDS011;61379;59.732;30.468;2023-06-24T09:32:52;8.40;;;7.68;;
73168;SDS011;61379;59.732;30.468;2023-06-24T09:35:21;8.35;;;7.53;;
73168;SDS011;61379;59.732;30.468;2023-06-24T09:37:48;7.93;;;7.13;;
73168;SDS011;61379;59.732;30.468;2023-06-24T09:40:15;9.52;;;7.63;;
73168;SDS011;61379;59.732;30.468;2023-06-24T09:42:50;9.35;;;8.35;;
73168;SDS011;61379;59.732;30.468;2023-06-24T09:45:21;10.90;;;8.68;;
73168;SDS011;61379;59.732;30.468;2023-06-24T09:47:48;9.45;;;7.88;;
73168;SDS011;61379;59.732;30.468;2023-06-24T09:50:15;9.52;;;7.88;;
73168;SDS011;61379;59.732;30.468;2023-06-24T09:52:43;13.05;;;7.97;;
73168;SDS011;61379;59.732;30.468;2023-06-24T09:55:11;8.55;;;7.38;;
73168;SDS011;61379;59.732;30.468;2023-06-24T09:57:39;8.93;;;8.02;;
73168;SDS011;61379;59.732;30.468;2023-06-24T10:00:06;11.45;;;8.55;;
73168;SDS011;61379;59.732;30.468;2023-06-24T10:02:34;8.98;;;8.07;;
73168;SDS011;61379;59.732;30.468;2023-06-24T10:05:00;8.30;;;7.60;;
73168;SDS011;61379;59.732;30.468;2023-06-24T10:09:57;10.82;;;8.15;;
73168;SDS011;61379;59.732;30.468;2023-06-24T10:12:24;10.18;;;7.68;;
73168;SDS011;61379;59.732;30.468;2023-06-24T10:14:52;8.93;;;7.53;;
73168;SDS011;61379;59.732;30.468;2023-06-24T10:17:19;7.68;;;6.95;;
73168;SDS011;61379;59.732;30.468;2023-06-24T10:19:46;8.40;;;7.57;;
73168;SDS011;61379;59.732;30.468;2023-06-24T10:22:13;9.27;;;6.85;;
73168;SDS011;61379;59.732;30.468;2023-06-24T10:24:40;8.60;;;7.80;;
73168;SDS011;61379;59.732;30.468;2023-06-24T10:27:15;8.90;;;8.10;;
73168;SDS011;61379;59.732;30.468;2023-06-24T10:29:44;12.20;;;8.10;;
73168;SDS011;61379;59.732;30.468;2023-06-24T10:32:11;8.57;;;7.88;;
73168;SDS011;61379;59.732;30.468;2023-06-24T10:34:41;8.90;;;7.72;;
73168;SDS011;61379;59.732;30.468;2023-06-24T10:37:09;9.30;;;8.30;;
73168;SDS011;61379;59.732;30.468;2023-06-24T10:39:40;9.23;;;7.88;;
73168;SDS011;61379;59.732;30.468;2023-06-24T10:42:30;7.80;;;7.20;;
73168;SDS011;61379;59.732;30.468;2023-06-24T10:44:59;8.98;;;7.72;;
73168;SDS011;61379;59.732;30.468;2023-06-24T10:47:26;8.13;;;7.47;;
73168;SDS011;61379;59.732;30.468;2023-06-24T10:49:53;8.75;;;7.95;;
73168;SDS011;61379;59.732;30.468;2023-06-24T10:52:20;9.02;;;8.23;;
73168;SDS011;61379;59.732;30.468;2023-06-24T10:54:47;8.35;;;7.65;;
73168;SDS011;61379;59.732;30.468;2023-06-24T10:57:14;9.63;;;7.68;;
73168;SDS011;61379;59.732;30.468;2023-06-24T10:59:46;8.80;;;8.02;;
73168;SDS011;61379;59.732;30.468;2023-06-24T11:02:13;8.60;;;7.90;;
73168;SDS011;61379;59.732;30.468;2023-06-24T11:04:44;9.20;;;8.45;;
73168;SDS011;61379;59.732;30.468;2023-06-24T11:07:10;9.57;;;8.77;;
73168;SDS011;61379;59.732;30.468;2023-06-24T11:09:37;8.80;;;8.10;;
73168;SDS011;61379;59.732;30.468;2023-06-24T11:12:05;9.48;;;8.68;;
73168;SDS011;61379;59.732;30.468;2023-06-24T11:14:32;9.70;;;8.88;;
73168;SDS011;61379;59.732;30.468;2023-06-24T11:17:01;9.98;;;9.25;;
73168;SDS011;61379;59.732;30.468;2023-06-24T11:19:29;11.73;;;10.55;;
73168;SDS011;61379;59.732;30.468;2023-06-24T11:21:58;9.35;;;8.65;;
73168;SDS011;61379;59.732;30.468;2023-06-24T11:24:25;9.13;;;8.23;;
73168;SDS011;61379;59.732;30.468;2023-06-24T11:26:52;9.55;;;8.75;;
73168;SDS011;61379;59.732;30.468;2023-06-24T11:29:18;9.05;;;8.15;;
73168;SDS011;61379;59.732;30.468;2023-06-24T11:31:45;9.63;;;8.70;;
73168;SDS011;61379;59.732;30.468;2023-06-24T11:34:13;9.93;;;8.88;;
73168;SDS011;61379;59.732;30.468;2023-06-24T11:36:40;8.80;;;7.88;;
73168;SDS011;61379;59.732;30.468;2023-06-24T11:39:07;9.15;;;8.35;;
73168;SDS011;61379;59.732;30.468;2023-06-24T11:41:33;9.10;;;8.30;;
73168;SDS011;61379;59.732;30.468;2023-06-24T11:44:00;11.68;;;8.27;;
73168;SDS011;61379;59.732;30.468;2023-06-24T11:46:27;10.82;;;8.98;;
73168;SDS011;61379;59.732;30.468;2023-06-24T11:49:02;9.18;;;8.25;;
73168;SDS011;61379;59.732;30.468;2023-06-24T11:51:30;10.90;;;10.00;;
73168;SDS011;61379;59.732;30.468;2023-06-24T11:53:58;9.80;;;8.77;;
73168;SDS011;61379;59.732;30.468;2023-06-24T11:56:33;9.32;;;8.43;;
73168;SDS011;61379;59.732;30.468;2023-06-24T11:59:00;9.57;;;8.73;;
73168;SDS011;61379;59.732;30.468;2023-06-24T12:01:29;9.43;;;8.63;;
73168;SDS011;61379;59.732;30.468;2023-06-24T12:03:56;9.63;;;8.82;;
73168;SDS011;61379;59.732;30.468;2023-06-24T12:06:23;9.90;;;9.00;;
73168;SDS011;61379;59.732;30.468;2023-06-24T12:08:51;10.40;;;9.18;;
73168;SDS011;61379;59.732;30.468;2023-06-24T12:11:18;11.13;;;10.23;;
73168;SDS011;61379;59.732;30.468;2023-06-24T12:13:45;10.63;;;9.73;;
73168;SDS011;61379;59.732;30.468;2023-06-24T12:16:11;10.68;;;9.88;;
73168;SDS011;61379;59.732;30.468;2023-06-24T12:18:38;13.02;;;10.65;;
73168;SDS011;61379;59.732;30.468;2023-06-24T12:21:05;11.88;;;10.40;;
73168;SDS011;61379;59.732;30.468;2023-06-24T12:23:32;11.68;;;10.57;;
73168;SDS011;61379;59.732;30.468;2023-06-24T12:26:00;11.70;;;10.70;;
73168;SDS011;61379;59.732;30.468;2023-06-24T12:28:27;11.68;;;10.55;;
73168;SDS011;61379;59.732;30.468;2023-06-24T12:30:54;13.32;;;11.68;;
73168;SDS011;61379;59.732;30.468;2023-06-24T12:33:20;11.40;;;10.27;;
73168;SDS011;61379;59.732;30.468;2023-06-24T12:35:48;12.48;;;11.27;;
73168;SDS011;61379;59.732;30.468;2023-06-24T12:38:14;11.95;;;9.90;;
73168;SDS011;61379;59.732;30.468;2023-06-24T12:40:42;11.18;;;10.07;;
73168;SDS011;61379;59.732;30.468;2023-06-24T12:43:10;9.73;;;8.65;;
73168;SDS011;61379;59.732;30.468;2023-06-24T12:45:37;10.15;;;9.25;;
73168;SDS011;61379;59.732;30.468;2023-06-24T12:48:04;9.43;;;8.38;;
73168;SDS011;61379;59.732;30.468;2023-06-24T12:50:31;9.70;;;8.77;;
73168;SDS011;61379;59.732;30.468;2023-06-24T12:52:58;9.55;;;8.60;;
73168;SDS011;61379;59.732;30.468;2023-06-24T12:55:24;9.57;;;8.77;;
73168;SDS011;61379;59.732;30.468;2023-06-24T12:57:51;9.48;;;8.65;;
73168;SDS011;61379;59.732;30.468;2023-06-24T13:00:20;9.00;;;8.20;;
73168;SDS011;61379;59.732;30.468;2023-06-24T13:02:47;9.27;;;8.38;;
73168;SDS011;61379;59.732;30.468;2023-06-24T13:05:14;8.75;;;8.05;;
73168;SDS011;61379;59.732;30.468;2023-06-24T13:07:41;9.57;;;8.77;;
73168;SDS011;61379;59.732;30.468;2023-06-24T13:10:08;9.77;;;8.73;;
73168;SDS011;61379;59.732;30.468;2023-06-24T13:12:35;9.73;;;8.82;;
73168;SDS011;61379;59.732;30.468;2023-06-24T13:15:02;9.68;;;8.63;;
73168;SDS011;61379;59.732;30.468;2023-06-24T13:17:34;10.10;;;9.30;;
73168;SDS011;61379;59.732;30.468;2023-06-24T13:20:00;9.23;;;8.45;;
73168;SDS011;61379;59.732;30.468;2023-06-24T13:24:56;10.00;;;9.18;;
73168;SDS011;61379;59.732;30.468;2023-06-24T13:27:22;10.98;;;10.18;;
73168;SDS011;61379;59.732;30.468;2023-06-24T13:29:49;9.75;;;8.85;;
73168;SDS011;61379;59.732;30.468;2023-06-24T13:32:16;10.02;;;9.23;;
73168;SDS011;61379;59.732;30.468;2023-06-24T13:34:44;10.10;;;9.20;;
73168;SDS011;61379;59.732;30.468;2023-06-24T13:37:11;10.45;;;9.65;;
73168;SDS011;61379;59.732;30.468;2023-06-24T13:39:37;10.57;;;9.68;;
73168;SDS011;61379;59.732;30.468;2023-06-24T13:42:04;9.68;;;8.32;;
73168;SDS011;61379;59.732;30.468;2023-06-24T13:44:31;10.15;;;9.35;;
73168;SDS011;61379;59.732;30.468;2023-06-24T13:46:58;9.13;;;8.40;;
73168;SDS011;61379;59.732;30.468;2023-06-24T13:49:26;8.73;;;8.02;;
73168;SDS011;61379;59.732;30.468;2023-06-24T13:51:54;8.73;;;8.02;;
73168;SDS011;61379;59.732;30.468;2023-06-24T13:54:21;8.70;;;8.10;;
73168;SDS011;61379;59.732;30.468;2023-06-24T13:56:47;8.70;;;8.10;;
73168;SDS011;61379;59.732;30.468;2023-06-24T13:59:14;7.95;;;7.45;;
73168;SDS011;61379;59.732;30.468;2023-06-24T14:01:41;7.93;;;7.32;;
73168;SDS011;61379;59.732;30.468;2023-06-24T14:04:08;9.13;;;8.38;;
73168;SDS011;61379;59.732;30.468;2023-06-24T14:06:34;7.55;;;6.85;;
73168;SDS011;61379;59.732;30.468;2023-06-24T14:09:02;8.23;;;7.60;;
73168;SDS011;61379;59.732;30.468;2023-06-24T14:11:29;8.02;;;7.40;;
73168;SDS011;61379;59.732;30.468;2023-06-24T14:13:56;8.07;;;7.47;;
73168;SDS011;61379;59.732;30.468;2023-06-24T14:16:23;8.07;;;7.43;;
73168;SDS011;61379;59.732;30.468;2023-06-24T14:18:49;8.60;;;7.90;;
73168;SDS011;61379;59.732;30.468;2023-06-24T14:21:16;7.25;;;6.75;;
73168;SDS011;61379;59.732;30.468;2023-06-24T14:23:43;7.78;;;7.07;;
73168;SDS011;61379;59.732;30.468;2023-06-24T14:26:11;8.07;;;7.47;;
73168;SDS011;61379;59.732;30.468;2023-06-24T14:28:38;7.80;;;7.20;;
73168;SDS011;61379;59.732;30.468;2023-06-24T14:31:05;7.63;;;7.13;;
73168;SDS011;61379;59.732;30.468;2023-06-24T14:33:31;8.10;;;7.47;;